createdAt,value
2022-09-01T00:00:06.524Z,15.40
2022-09-01T00:02:37.542Z,15.40
2022-09-01T00:05:09.748Z,15.40
2022-09-01T00:07:37.358Z,15.40
2022-09-01T00:10:09.997Z,15.30
2022-09-01T00:12:38.674Z,15.30
2022-09-01T00:15:10.203Z,15.30
2022-09-01T00:17:38.831Z,15.30
2022-09-01T00:20:10.445Z,15.30
2022-09-01T00:22:38.052Z,15.30
2022-09-01T00:25:08.759Z,15.20
2022-09-01T00:27:37.243Z,15.20
2022-09-01T00:30:04.859Z,15.20
2022-09-01T00:32:32.452Z,15.20
2022-09-01T00:35:02.058Z,15.20
2022-09-01T00:37:30.670Z,15.10
2022-09-01T00:39:58.281Z,15.10
2022-09-01T00:42:27.886Z,15.10
2022-09-01T00:44:55.591Z,15.00
2022-09-01T00:47:24.058Z,15.00
2022-09-01T00:49:53.675Z,14.90
2022-09-01T00:52:33.312Z,14.90
2022-09-01T00:55:24.016Z,14.80
2022-09-01T00:57:51.678Z,14.80
2022-09-01T01:00:24.273Z,14.80
2022-09-01T01:02:57.025Z,14.70
2022-09-01T01:05:30.534Z,14.70
2022-09-01T01:07:58.088Z,14.60
2022-09-01T01:10:27.704Z,14.50
2022-09-01T01:12:55.369Z,14.50
2022-09-01T01:15:22.944Z,14.40
2022-09-01T01:17:51.096Z,14.40
2022-09-01T01:20:41.276Z,14.40
2022-09-01T01:23:25.894Z,14.30
2022-09-01T01:26:00.504Z,14.30
2022-09-01T01:28:37.152Z,14.30
2022-09-01T01:31:13.853Z,14.20
2022-09-01T01:33:48.406Z,14.20
2022-09-01T01:36:32.075Z,14.20
2022-09-01T01:39:13.774Z,14.10
2022-09-01T01:41:46.370Z,14.10
2022-09-01T01:44:17.993Z,14.10
2022-09-01T01:46:49.622Z,14.10
2022-09-01T01:49:23.814Z,14.00
2022-09-01T01:51:56.880Z,14.00
2022-09-01T01:54:32.611Z,13.90
2022-09-01T01:57:02.104Z,13.90
2022-09-01T01:59:30.728Z,13.90
2022-09-01T02:01:59.349Z,13.80
2022-09-01T02:04:28.917Z,13.70
2022-09-01T02:06:58.522Z,13.70
2022-09-01T02:09:27.113Z,13.70
2022-09-01T02:11:57.722Z,13.70
2022-09-01T02:14:26.342Z,13.60
2022-09-01T02:16:56.984Z,13.60
2022-09-01T02:19:24.529Z,13.50
2022-09-01T02:21:57.145Z,13.40
2022-09-01T02:24:25.752Z,13.40
2022-09-01T02:26:54.341Z,13.30
2022-09-01T02:29:24.959Z,13.30
2022-09-01T02:31:54.563Z,13.30
2022-09-01T02:34:25.168Z,13.30
2022-09-01T02:36:56.794Z,13.30
2022-09-01T02:39:30.390Z,13.20
2022-09-01T02:41:58.987Z,13.20
2022-09-01T02:44:30.612Z,13.10
2022-09-01T02:46:59.223Z,13.10
2022-09-01T02:49:30.002Z,13.00
2022-09-01T02:52:02.001Z,13.00
2022-09-01T02:54:34.100Z,13.00
2022-09-01T02:57:04.690Z,12.90
2022-09-01T02:59:32.873Z,12.90
2022-09-01T03:02:01.898Z,12.80
2022-09-01T03:04:36.606Z,12.80
2022-09-01T03:07:06.994Z,12.80
2022-09-01T03:09:35.755Z,12.80
2022-09-01T03:12:08.867Z,12.70
2022-09-01T03:14:37.003Z,12.70
2022-09-01T03:17:05.620Z,12.60
2022-09-01T03:19:42.222Z,12.60
2022-09-01T03:22:10.824Z,12.60
2022-09-01T03:24:41.425Z,12.60
2022-09-01T03:27:12.058Z,12.50
2022-09-01T03:29:41.655Z,12.50
2022-09-01T03:32:11.135Z,12.50
2022-09-01T03:34:39.508Z,12.50
2022-09-01T03:37:12.502Z,12.50
2022-09-01T03:39:41.062Z,12.40
2022-09-01T03:42:11.531Z,12.40
2022-09-01T03:44:42.343Z,12.30
2022-09-01T03:47:15.945Z,12.30
2022-09-01T03:49:45.561Z,12.20
2022-09-01T03:52:14.152Z,12.10
2022-09-01T03:54:42.737Z,12.10
2022-09-01T03:57:13.935Z,12.10
2022-09-01T03:59:43.969Z,12.10
2022-09-01T04:02:15.668Z,12.10
2022-09-01T04:04:44.233Z,12.10
2022-09-01T04:07:15.497Z,12.00
2022-09-01T04:09:49.437Z,12.00
2022-09-01T04:12:18.043Z,12.00
2022-09-01T04:14:51.689Z,11.90
2022-09-01T04:17:39.332Z,11.90
2022-09-01T04:20:10.970Z,11.90
2022-09-01T04:22:39.042Z,11.80
2022-09-01T04:25:07.150Z,11.80
2022-09-01T04:27:37.643Z,11.80
2022-09-01T04:30:04.981Z,11.70
2022-09-01T04:32:36.986Z,11.70
2022-09-01T04:35:06.601Z,11.70
2022-09-01T04:37:37.220Z,11.70
2022-09-01T04:40:05.883Z,11.70
2022-09-01T04:42:34.407Z,11.70
2022-09-01T04:45:09.997Z,11.70
2022-09-01T04:47:42.628Z,11.60
2022-09-01T04:50:18.273Z,11.60
2022-09-01T04:53:07.960Z,11.60
2022-09-01T04:55:45.633Z,11.50
2022-09-01T04:58:19.257Z,11.50
2022-09-01T05:00:50.904Z,11.50
2022-09-01T05:03:23.506Z,11.50
2022-09-01T05:06:02.119Z,11.40
2022-09-01T05:08:32.592Z,11.40
2022-09-01T05:11:08.828Z,11.40
2022-09-01T05:13:46.125Z,11.30
2022-09-01T05:16:21.508Z,11.30
2022-09-01T05:18:58.308Z,11.30
2022-09-01T05:21:30.893Z,11.30
2022-09-01T05:24:04.522Z,11.30
2022-09-01T05:26:35.955Z,11.30
2022-09-01T05:29:10.936Z,11.30
2022-09-01T05:31:41.499Z,11.30
2022-09-01T05:34:11.011Z,11.30
2022-09-01T05:36:46.659Z,11.30
2022-09-01T05:39:15.258Z,11.30
2022-09-01T05:41:44.851Z,11.30
2022-09-01T05:44:15.349Z,11.30
2022-09-01T05:46:45.152Z,11.30
2022-09-01T05:49:14.663Z,11.40
2022-09-01T05:51:45.774Z,11.30
2022-09-01T05:54:15.160Z,11.30
2022-09-01T05:56:46.508Z,11.30
2022-09-01T05:59:24.338Z,11.30
2022-09-01T06:01:55.940Z,11.30
2022-09-01T06:04:28.350Z,11.20
2022-09-01T06:07:14.611Z,11.20
2022-09-01T06:09:55.714Z,11.30
2022-09-01T06:12:27.283Z,11.30
2022-09-01T06:14:55.872Z,11.20
2022-09-01T06:17:28.338Z,11.30
2022-09-01T06:19:59.174Z,11.30
2022-09-01T06:22:29.743Z,11.30
2022-09-01T06:25:02.717Z,11.30
2022-09-01T06:27:44.272Z,11.30
2022-09-01T06:30:23.472Z,11.30
2022-09-01T06:32:59.290Z,11.40
2022-09-01T06:35:29.708Z,11.50
2022-09-01T06:38:03.522Z,11.60
2022-09-01T06:40:43.383Z,11.70
2022-09-01T06:43:15.421Z,11.90
2022-09-01T06:45:55.467Z,12.10
2022-09-01T06:48:25.192Z,12.30
2022-09-01T06:51:21.995Z,12.40
2022-09-01T06:53:59.475Z,12.60
2022-09-01T06:56:36.826Z,12.80
2022-09-01T06:59:18.709Z,12.90
2022-09-01T07:14:20.367Z,13.70
2022-09-01T07:16:52.512Z,13.80
2022-09-01T07:19:22.561Z,14.00
2022-09-01T07:25:11.534Z,14.30
2022-09-01T07:42:30.582Z,14.50
2022-09-01T07:42:32.154Z,14.20
2022-09-01T08:46:40.349Z,18.70
2022-09-01T08:49:30.272Z,18.70
2022-09-01T08:52:25.632Z,18.90
2022-09-01T08:55:01.006Z,19.00
2022-09-01T08:57:35.630Z,19.30
2022-09-01T09:00:26.406Z,19.40
2022-09-01T09:03:42.323Z,19.40
2022-09-01T09:06:38.018Z,19.50
2022-09-01T09:09:11.569Z,19.60
2022-09-01T09:12:12.337Z,19.70
2022-09-01T09:15:19.021Z,19.80
2022-09-01T09:17:59.979Z,19.70
2022-09-01T09:20:30.402Z,19.70
2022-09-01T09:23:02.157Z,19.80
2022-09-01T09:25:42.556Z,19.80
2022-09-01T09:28:11.416Z,19.60
2022-09-01T16:33:24.496Z,20.50
2022-09-01T16:36:13.355Z,20.50
2022-09-01T16:38:58.787Z,20.50
2022-09-01T16:42:01.259Z,20.40
2022-09-01T16:45:13.730Z,20.40
2022-09-01T16:47:56.965Z,20.40
2022-09-01T16:50:58.723Z,20.40
2022-09-01T16:53:45.439Z,20.40
2022-09-01T16:56:26.082Z,20.30
2022-09-01T16:59:05.718Z,20.30
2022-09-01T17:01:56.464Z,20.20
2022-09-01T17:04:39.113Z,20.20
2022-09-01T17:07:31.557Z,20.10
2022-09-01T17:10:29.500Z,20.00
2022-09-01T17:12:58.095Z,20.00
2022-09-01T17:15:40.900Z,19.90
2022-09-01T17:18:23.226Z,19.80
2022-09-01T17:21:00.099Z,19.70
2022-09-01T17:23:31.446Z,19.50
2022-09-01T17:26:17.425Z,19.40
2022-09-01T17:29:13.163Z,19.30
2022-09-01T17:32:14.926Z,19.20
